Portland, OR

10:32 PM PDT on August 30, 2014 (GMT -0700)
Creston Park | Change Station
CLOSE
Current Station
Personal Weather Station
Location: Portland, OR
Elevation: 175 ft
Nearby Weather Stations

Elev 175 ft 45.50 °N, 122.62 °W | Updated 10 seconds ago

Partly Cloudy
Partly Cloudy
57.7 °F
Feels Like 57.7 °F
N
0.0
Wind Variable Wind from West
Gusts 0.0 mph

Today
High -- | Low -- °F
--% Chance of Precip.
Yesterday
High -- | Low -- °F
Precip. -- in
6:29 AM 7:51 PM
Waxing Crescent, 27% visible
Pressure 30.01 in
Visibility 10.0 miles
Clouds Few 8000 ft
Dew Point 55 °F
Humidity 90%
Rainfall 0.47 in
Snow Depth Not available.
UV 0 out of 12
Pollen 3.40 out of 12
Ozone Good
PM2.5 Good
Flu Activity Not available.
METAR KPDX 310453Z 30005KT 10SM FEW080 17/11 A3001 RMK AO2 SLP161 T01720111 $

More Conditions Fewer Conditions

Pressure 30.01 in
Visibility 10.0 miles
Clouds Few 8000 ft
Dew Point 55 °F
Humidity 90%
Rainfall 0.47 in
Snow Depth Not available.
UV 0 out of 12
Pollen 3.40 out of 12
Ozone Good
PM2.5 Good
Flu Activity Not available.
METAR KPDX 310453Z 30005KT 10SM FEW080 17/11 A3001 RMK AO2 SLP161 T01720111 $

More Conditions Fewer Conditions

10-Day Weather Forecast

Almanac

Astronomy

Aug. 30, 2014 Rise Set
Actual Time 6:29 AM PDT 7:51 PM PDT
Civil Twilight 5:58 AM PDT 8:22 PM PDT
Nautical Twilight 5:21 AM PDT 8:59 PM PDT
Astronomical Twilight 4:41 AM PDT 9:38 PM PDT
Moon 11:38 AM PDT (8/30) 10:12 PM PDT (8/30)
Length of Visible Light 14h 23m
Length of Day
13h 22m
Tomorrow will be 3m 4s shorter.
Waxing Crescent, 27% of the Moon is Illuminated
Aug 31
Waxing Crescent
Sep 2
First Quarter
Sep 8
Full
Sep 15
Last Quarter
Sep 24
New

Yesterday's Extremes

State Highs State Lows

Community

WunderPhotos

Upload Photos

1,748,790 photos uploaded!

Nearby

Air Quality

  Air Quality AQ Index Pollutant
Yesterday Good
OZONE
Yesterday Good
PM2.5
Current Good
PM2.5
Current Good
OZONE
Saturday Good
PM2.5
Sunday Good
PM2.5

Snow Depth

Station Depth Elevation
North Fork 1 in 3120 ft
Seine Creek 0 in 2000 ft
Saddle Mountain 5 in 3250 ft
Blazed Alder 0 in 3650 ft
Red Hill 0 in 4400 ft

Earthquake Activity

City Distance Mag. Time & Date
No recent earthquake activity has been reported nearby.
Minimum magnitude displayed is 2.5.

Coastal Water Temperatures

Place Temperature
No Stations Reporting

Nearby Weather Stations